Terminal Aerodrome Forecast
Issued by NWS

Home | Current Version | Previous Version | Text Only | Print | Product List | Glossary On
Versions: 1 2 3 4 5 6 7 8 9 10 11 12 13 14 15 16 17 18 19 20 21
057
FTUS46 KHNX 160524
TAFFAT
TAF
KFAT 160524Z 1606/1706 VRB03KT 2SM BR OVC150
     FM161800 33008KT 3SM HZ SCT100 BKN200=

USA.gov is the U.S. government's official web portal to all federal, state and local government web resources and services.